sensor_id;sensor_type;location;lat;lon;timestamp;temperature;humidity
54485;DHT22;45006;56.958;24.166;2023-05-07T00:00:04;20.10;92.60
54485;DHT22;45006;56.958;24.166;2023-05-07T00:02:35;20.10;92.90
54485;DHT22;45006;56.958;24.166;2023-05-07T00:05:02;20.10;80.90
54485;DHT22;45006;56.958;24.166;2023-05-07T00:07:30;20.10;78.00
54485;DHT22;45006;56.958;24.166;2023-05-07T00:09:57;20.10;77.50
54485;DHT22;45006;56.958;24.166;2023-05-07T00:12:24;20.00;77.50
54485;DHT22;45006;56.958;24.166;2023-05-07T00:14:52;20.00;77.40
54485;DHT22;45006;56.958;24.166;2023-05-07T00:17:19;20.10;77.60
54485;DHT22;45006;56.958;24.166;2023-05-07T00:19:46;20.00;77.60
54485;DHT22;45006;56.958;24.166;2023-05-07T00:22:13;20.00;77.50
54485;DHT22;45006;56.958;24.166;2023-05-07T00:24:40;20.10;77.60
54485;DHT22;45006;56.958;24.166;2023-05-07T00:27:07;20.10;77.50
54485;DHT22;45006;56.958;24.166;2023-05-07T00:29:34;20.00;77.30
54485;DHT22;45006;56.958;24.166;2023-05-07T00:32:01;20.10;77.40
54485;DHT22;45006;56.958;24.166;2023-05-07T00:34:28;20.00;77.30
54485;DHT22;45006;56.958;24.166;2023-05-07T00:36:54;20.00;77.50
54485;DHT22;45006;56.958;24.166;2023-05-07T00:39:21;20.10;77.60
54485;DHT22;45006;56.958;24.166;2023-05-07T00:41:48;20.10;77.60
54485;DHT22;45006;56.958;24.166;2023-05-07T00:44:15;20.10;77.50
54485;DHT22;45006;56.958;24.166;2023-05-07T00:46:42;20.10;77.60
54485;DHT22;45006;56.958;24.166;2023-05-07T00:49:09;20.00;77.50
54485;DHT22;45006;56.958;24.166;2023-05-07T00:51:36;20.10;77.60
54485;DHT22;45006;56.958;24.166;2023-05-07T00:54:03;20.00;77.40
54485;DHT22;45006;56.958;24.166;2023-05-07T00:56:31;20.10;77.70
54485;DHT22;45006;56.958;24.166;2023-05-07T00:58:59;20.00;77.50
54485;DHT22;45006;56.958;24.166;2023-05-07T01:01:27;20.10;77.40
54485;DHT22;45006;56.958;24.166;2023-05-07T01:03:54;20.00;77.30
54485;DHT22;45006;56.958;24.166;2023-05-07T01:06:23;20.00;77.30
54485;DHT22;45006;56.958;24.166;2023-05-07T01:08:50;20.00;77.40
54485;DHT22;45006;56.958;24.166;2023-05-07T01:11:19;20.00;77.20
54485;DHT22;45006;56.958;24.166;2023-05-07T01:13:49;20.00;77.20
54485;DHT22;45006;56.958;24.166;2023-05-07T01:16:17;20.00;77.10
54485;DHT22;45006;56.958;24.166;2023-05-07T01:18:44;20.00;77.10
54485;DHT22;45006;56.958;24.166;2023-05-07T01:21:15;20.00;77.10
54485;DHT22;45006;56.958;24.166;2023-05-07T01:23:44;20.00;77.20
54485;DHT22;45006;56.958;24.166;2023-05-07T01:26:11;20.00;77.10
54485;DHT22;45006;56.958;24.166;2023-05-07T01:28:38;20.00;77.10
54485;DHT22;45006;56.958;24.166;2023-05-07T01:31:06;20.00;77.10
54485;DHT22;45006;56.958;24.166;2023-05-07T01:33:34;20.00;77.10
54485;DHT22;45006;56.958;24.166;2023-05-07T01:36:03;20.00;77.10
54485;DHT22;45006;56.958;24.166;2023-05-07T01:38:33;20.00;77.00
54485;DHT22;45006;56.958;24.166;2023-05-07T01:41:00;20.00;77.00
54485;DHT22;45006;56.958;24.166;2023-05-07T01:43:29;20.00;76.90
54485;DHT22;45006;56.958;24.166;2023-05-07T01:45:58;20.00;76.90
54485;DHT22;45006;56.958;24.166;2023-05-07T01:48:27;20.10;76.90
54485;DHT22;45006;56.958;24.166;2023-05-07T01:50:55;20.00;76.90
54485;DHT22;45006;56.958;24.166;2023-05-07T01:53:22;20.00;76.80
54485;DHT22;45006;56.958;24.166;2023-05-07T01:55:49;20.00;76.90
54485;DHT22;45006;56.958;24.166;2023-05-07T01:58:17;20.00;77.10
54485;DHT22;45006;56.958;24.166;2023-05-07T02:00:44;20.00;77.40
54485;DHT22;45006;56.958;24.166;2023-05-07T02:03:11;20.00;77.20
54485;DHT22;45006;56.958;24.166;2023-05-07T02:05:40;20.00;77.20
54485;DHT22;45006;56.958;24.166;2023-05-07T02:08:07;20.00;77.20
54485;DHT22;45006;56.958;24.166;2023-05-07T02:10:34;20.00;77.20
54485;DHT22;45006;56.958;24.166;2023-05-07T02:13:02;20.00;77.20
54485;DHT22;45006;56.958;24.166;2023-05-07T02:15:29;20.00;77.30
54485;DHT22;45006;56.958;24.166;2023-05-07T02:18:04;20.00;77.30
54485;DHT22;45006;56.958;24.166;2023-05-07T02:20:31;20.00;77.30
54485;DHT22;45006;56.958;24.166;2023-05-07T02:22:59;20.00;77.50
54485;DHT22;45006;56.958;24.166;2023-05-07T02:25:27;20.00;77.50
54485;DHT22;45006;56.958;24.166;2023-05-07T02:27:54;20.00;78.00
54485;DHT22;45006;56.958;24.166;2023-05-07T02:30:20;20.00;78.10
54485;DHT22;45006;56.958;24.166;2023-05-07T02:32:48;20.00;77.70
54485;DHT22;45006;56.958;24.166;2023-05-07T02:35:15;20.00;77.50
54485;DHT22;45006;56.958;24.166;2023-05-07T02:37:42;20.00;77.60
54485;DHT22;45006;56.958;24.166;2023-05-07T02:40:09;20.00;77.70
54485;DHT22;45006;56.958;24.166;2023-05-07T02:42:37;20.00;77.70
54485;DHT22;45006;56.958;24.166;2023-05-07T02:45:04;20.00;77.70
54485;DHT22;45006;56.958;24.166;2023-05-07T02:47:31;20.00;77.80
54485;DHT22;45006;56.958;24.166;2023-05-07T02:49:58;20.00;77.60
54485;DHT22;45006;56.958;24.166;2023-05-07T02:52:25;20.00;77.60
54485;DHT22;45006;56.958;24.166;2023-05-07T02:54:52;20.00;77.70
54485;DHT22;45006;56.958;24.166;2023-05-07T02:57:19;20.00;77.50
54485;DHT22;45006;56.958;24.166;2023-05-07T02:59:46;20.00;77.60
54485;DHT22;45006;56.958;24.166;2023-05-07T03:02:13;20.00;77.30
54485;DHT22;45006;56.958;24.166;2023-05-07T03:04:40;20.00;77.50
54485;DHT22;45006;56.958;24.166;2023-05-07T03:07:07;20.00;77.30
54485;DHT22;45006;56.958;24.166;2023-05-07T03:09:34;20.00;77.40
54485;DHT22;45006;56.958;24.166;2023-05-07T03:12:01;20.00;77.50
54485;DHT22;45006;56.958;24.166;2023-05-07T03:14:28;20.00;77.30
54485;DHT22;45006;56.958;24.166;2023-05-07T03:16:55;20.00;77.40
54485;DHT22;45006;56.958;24.166;2023-05-07T03:19:22;20.00;77.40
54485;DHT22;45006;56.958;24.166;2023-05-07T03:21:49;20.00;77.40
54485;DHT22;45006;56.958;24.166;2023-05-07T03:24:16;20.00;77.40
54485;DHT22;45006;56.958;24.166;2023-05-07T03:26:43;20.00;77.30
54485;DHT22;45006;56.958;24.166;2023-05-07T03:29:10;20.00;77.40
54485;DHT22;45006;56.958;24.166;2023-05-07T03:31:37;20.00;77.40
54485;DHT22;45006;56.958;24.166;2023-05-07T03:34:04;20.00;77.40
54485;DHT22;45006;56.958;24.166;2023-05-07T03:36:31;20.00;77.50
54485;DHT22;45006;56.958;24.166;2023-05-07T03:38:58;20.00;77.50
54485;DHT22;45006;56.958;24.166;2023-05-07T03:41:25;20.00;77.60
54485;DHT22;45006;56.958;24.166;2023-05-07T03:43:52;20.00;77.50
54485;DHT22;45006;56.958;24.166;2023-05-07T03:46:19;20.00;77.60
54485;DHT22;45006;56.958;24.166;2023-05-07T03:48:46;20.00;77.50
54485;DHT22;45006;56.958;24.166;2023-05-07T03:51:15;20.00;77.70
54485;DHT22;45006;56.958;24.166;2023-05-07T03:53:42;20.00;77.60
54485;DHT22;45006;56.958;24.166;2023-05-07T03:56:09;20.00;77.50
54485;DHT22;45006;56.958;24.166;2023-05-07T03:58:36;20.00;77.50
54485;DHT22;45006;56.958;24.166;2023-05-07T04:01:03;20.00;77.40
54485;DHT22;45006;56.958;24.166;2023-05-07T04:03:30;20.00;77.40
54485;DHT22;45006;56.958;24.166;2023-05-07T04:05:57;20.00;77.30
54485;DHT22;45006;56.958;24.166;2023-05-07T04:08:24;20.00;77.30
54485;DHT22;45006;56.958;24.166;2023-05-07T04:10:57;20.00;77.20
54485;DHT22;45006;56.958;24.166;2023-05-07T04:13:26;20.00;77.10
54485;DHT22;45006;56.958;24.166;2023-05-07T04:15:55;20.00;77.20
54485;DHT22;45006;56.958;24.166;2023-05-07T04:18:22;20.00;77.20
54485;DHT22;45006;56.958;24.166;2023-05-07T04:20:49;20.00;77.40
54485;DHT22;45006;56.958;24.166;2023-05-07T04:23:16;20.00;77.30
54485;DHT22;45006;56.958;24.166;2023-05-07T04:25:43;20.00;77.30
54485;DHT22;45006;56.958;24.166;2023-05-07T04:28:10;20.00;77.30
54485;DHT22;45006;56.958;24.166;2023-05-07T04:30:38;20.00;77.20
54485;DHT22;45006;56.958;24.166;2023-05-07T04:33:05;20.00;77.20
54485;DHT22;45006;56.958;24.166;2023-05-07T04:35:33;20.00;77.10
54485;DHT22;45006;56.958;24.166;2023-05-07T04:38:00;20.10;77.10
54485;DHT22;45006;56.958;24.166;2023-05-07T04:40:28;20.10;76.40
54485;DHT22;45006;56.958;24.166;2023-05-07T04:42:55;20.10;76.20
54485;DHT22;45006;56.958;24.166;2023-05-07T04:45:22;20.10;76.10
54485;DHT22;45006;56.958;24.166;2023-05-07T04:47:50;20.10;75.70
54485;DHT22;45006;56.958;24.166;2023-05-07T04:50:16;20.10;75.60
54485;DHT22;45006;56.958;24.166;2023-05-07T04:52:46;20.10;75.60
54485;DHT22;45006;56.958;24.166;2023-05-07T04:55:13;20.10;75.50
54485;DHT22;45006;56.958;24.166;2023-05-07T04:57:40;20.20;74.70
54485;DHT22;45006;56.958;24.166;2023-05-07T05:00:08;20.20;74.60
54485;DHT22;45006;56.958;24.166;2023-05-07T05:02:36;20.20;75.50
54485;DHT22;45006;56.958;24.166;2023-05-07T05:05:03;20.20;74.60
54485;DHT22;45006;56.958;24.166;2023-05-07T05:07:30;20.30;74.40
54485;DHT22;45006;56.958;24.166;2023-05-07T05:09:57;20.40;74.20
54485;DHT22;45006;56.958;24.166;2023-05-07T05:12:24;20.40;73.70
54485;DHT22;45006;56.958;24.166;2023-05-07T05:14:51;20.40;73.40
54485;DHT22;45006;56.958;24.166;2023-05-07T05:17:18;20.50;73.40
54485;DHT22;45006;56.958;24.166;2023-05-07T05:19:45;20.50;73.10
54485;DHT22;45006;56.958;24.166;2023-05-07T05:22:12;20.60;73.20
54485;DHT22;45006;56.958;24.166;2023-05-07T05:24:39;20.60;73.10
54485;DHT22;45006;56.958;24.166;2023-05-07T05:27:06;20.70;73.00
54485;DHT22;45006;56.958;24.166;2023-05-07T05:29:33;20.70;72.70
54485;DHT22;45006;56.958;24.166;2023-05-07T05:32:00;20.70;73.80
54485;DHT22;45006;56.958;24.166;2023-05-07T05:34:27;20.80;73.70
54485;DHT22;45006;56.958;24.166;2023-05-07T05:36:54;20.80;72.80
54485;DHT22;45006;56.958;24.166;2023-05-07T05:39:21;20.90;72.70
54485;DHT22;45006;56.958;24.166;2023-05-07T05:41:49;20.90;72.70
54485;DHT22;45006;56.958;24.166;2023-05-07T05:44:16;20.90;72.70
54485;DHT22;45006;56.958;24.166;2023-05-07T05:46:44;20.90;72.60
54485;DHT22;45006;56.958;24.166;2023-05-07T05:49:11;21.00;72.70
54485;DHT22;45006;56.958;24.166;2023-05-07T05:51:39;21.00;72.80
54485;DHT22;45006;56.958;24.166;2023-05-07T05:54:06;21.00;70.90
54485;DHT22;45006;56.958;24.166;2023-05-07T05:56:33;21.10;71.90
54485;DHT22;45006;56.958;24.166;2023-05-07T05:59:00;21.10;71.70
54485;DHT22;45006;56.958;24.166;2023-05-07T06:01:27;21.20;71.90
54485;DHT22;45006;56.958;24.166;2023-05-07T06:03:54;21.20;72.00
54485;DHT22;45006;56.958;24.166;2023-05-07T06:06:21;21.20;72.20
54485;DHT22;45006;56.958;24.166;2023-05-07T06:08:48;21.30;72.30
54485;DHT22;45006;56.958;24.166;2023-05-07T06:11:15;21.30;72.50
54485;DHT22;45006;56.958;24.166;2023-05-07T06:13:42;21.30;72.60
54485;DHT22;45006;56.958;24.166;2023-05-07T06:16:09;21.30;72.80
54485;DHT22;45006;56.958;24.166;2023-05-07T06:18:36;21.40;73.00
54485;DHT22;45006;56.958;24.166;2023-05-07T06:21:03;21.30;73.00
54485;DHT22;45006;56.958;24.166;2023-05-07T06:23:30;21.30;73.20
54485;DHT22;45006;56.958;24.166;2023-05-07T06:25:57;21.30;73.30
54485;DHT22;45006;56.958;24.166;2023-05-07T06:28:23;21.40;73.50
54485;DHT22;45006;56.958;24.166;2023-05-07T06:30:50;21.40;73.40
54485;DHT22;45006;56.958;24.166;2023-05-07T06:33:17;21.40;73.80
54485;DHT22;45006;56.958;24.166;2023-05-07T06:35:46;21.40;73.80
54485;DHT22;45006;56.958;24.166;2023-05-07T06:38:13;21.40;74.00
54485;DHT22;45006;56.958;24.166;2023-05-07T06:40:42;21.50;74.10
54485;DHT22;45006;56.958;24.166;2023-05-07T06:43:09;21.50;74.20
54485;DHT22;45006;56.958;24.166;2023-05-07T06:45:35;21.50;74.30
54485;DHT22;45006;56.958;24.166;2023-05-07T06:48:03;21.50;74.30
54485;DHT22;45006;56.958;24.166;2023-05-07T06:50:30;21.50;74.50
54485;DHT22;45006;56.958;24.166;2023-05-07T06:52:57;21.50;74.40
54485;DHT22;45006;56.958;24.166;2023-05-07T06:55:24;21.50;74.50
54485;DHT22;45006;56.958;24.166;2023-05-07T06:57:51;21.50;74.70
54485;DHT22;45006;56.958;24.166;2023-05-07T07:00:18;21.50;74.80
54485;DHT22;45006;56.958;24.166;2023-05-07T07:02:45;21.50;75.00
54485;DHT22;45006;56.958;24.166;2023-05-07T07:05:12;21.50;74.90
54485;DHT22;45006;56.958;24.166;2023-05-07T07:07:39;21.50;75.00
54485;DHT22;45006;56.958;24.166;2023-05-07T07:10:06;21.50;75.00
54485;DHT22;45006;56.958;24.166;2023-05-07T07:12:33;21.50;75.20
54485;DHT22;45006;56.958;24.166;2023-05-07T07:15:00;21.50;75.10
54485;DHT22;45006;56.958;24.166;2023-05-07T07:17:27;21.50;76.10
54485;DHT22;45006;56.958;24.166;2023-05-07T07:19:54;21.50;75.40
54485;DHT22;45006;56.958;24.166;2023-05-07T07:22:21;21.50;75.40
54485;DHT22;45006;56.958;24.166;2023-05-07T07:24:48;21.50;75.40
54485;DHT22;45006;56.958;24.166;2023-05-07T07:27:15;21.50;75.60
54485;DHT22;45006;56.958;24.166;2023-05-07T07:29:41;21.50;75.60
54485;DHT22;45006;56.958;24.166;2023-05-07T07:32:08;21.50;75.80
54485;DHT22;45006;56.958;24.166;2023-05-07T07:34:35;21.50;75.80
54485;DHT22;45006;56.958;24.166;2023-05-07T07:37:02;21.50;75.80
54485;DHT22;45006;56.958;24.166;2023-05-07T07:39:33;21.50;75.90
54485;DHT22;45006;56.958;24.166;2023-05-07T07:42:00;21.50;76.00
54485;DHT22;45006;56.958;24.166;2023-05-07T07:44:28;21.50;76.30
54485;DHT22;45006;56.958;24.166;2023-05-07T07:46:55;21.50;76.20
54485;DHT22;45006;56.958;24.166;2023-05-07T07:49:22;21.50;76.40
54485;DHT22;45006;56.958;24.166;2023-05-07T07:51:49;21.50;76.30
54485;DHT22;45006;56.958;24.166;2023-05-07T07:54:16;21.50;76.70
54485;DHT22;45006;56.958;24.166;2023-05-07T07:56:43;21.50;74.80
54485;DHT22;45006;56.958;24.166;2023-05-07T07:59:10;21.50;70.10
54485;DHT22;45006;56.958;24.166;2023-05-07T08:01:37;21.40;67.90
54485;DHT22;45006;56.958;24.166;2023-05-07T08:04:04;21.30;67.50
54485;DHT22;45006;56.958;24.166;2023-05-07T08:06:32;21.30;67.70
54485;DHT22;45006;56.958;24.166;2023-05-07T08:08:59;21.20;67.10
54485;DHT22;45006;56.958;24.166;2023-05-07T08:11:26;21.20;65.80
54485;DHT22;45006;56.958;24.166;2023-05-07T08:13:54;21.10;62.90
54485;DHT22;45006;56.958;24.166;2023-05-07T08:16:21;21.10;60.00
54485;DHT22;45006;56.958;24.166;2023-05-07T08:18:49;21.00;59.20
54485;DHT22;45006;56.958;24.166;2023-05-07T08:21:17;21.00;58.00
54485;DHT22;45006;56.958;24.166;2023-05-07T08:23:43;20.90;58.90
54485;DHT22;45006;56.958;24.166;2023-05-07T08:26:11;20.90;59.30
54485;DHT22;45006;56.958;24.166;2023-05-07T08:28:38;20.90;60.00
54485;DHT22;45006;56.958;24.166;2023-05-07T08:31:06;20.90;60.30
54485;DHT22;45006;56.958;24.166;2023-05-07T08:33:33;20.90;60.40
54485;DHT22;45006;56.958;24.166;2023-05-07T08:36:00;20.90;60.80
54485;DHT22;45006;56.958;24.166;2023-05-07T08:38:26;20.90;61.10
54485;DHT22;45006;56.958;24.166;2023-05-07T08:40:53;20.90;61.30
54485;DHT22;45006;56.958;24.166;2023-05-07T08:43:22;20.90;61.90
54485;DHT22;45006;56.958;24.166;2023-05-07T08:45:57;20.90;61.70
54485;DHT22;45006;56.958;24.166;2023-05-07T08:48:29;20.90;62.10
54485;DHT22;45006;56.958;24.166;2023-05-07T08:50:58;20.90;61.90
54485;DHT22;45006;56.958;24.166;2023-05-07T08:53:27;20.80;61.90
54485;DHT22;45006;56.958;24.166;2023-05-07T08:55:54;20.80;62.10
54485;DHT22;45006;56.958;24.166;2023-05-07T08:58:21;20.80;62.40
54485;DHT22;45006;56.958;24.166;2023-05-07T09:00:49;20.90;63.10
54485;DHT22;45006;56.958;24.166;2023-05-07T09:03:16;20.90;63.20
54485;DHT22;45006;56.958;24.166;2023-05-07T09:05:43;20.90;63.10
54485;DHT22;45006;56.958;24.166;2023-05-07T09:08:15;20.80;63.20
54485;DHT22;45006;56.958;24.166;2023-05-07T09:10:43;20.80;63.30
54485;DHT22;45006;56.958;24.166;2023-05-07T09:13:11;20.80;63.40
54485;DHT22;45006;56.958;24.166;2023-05-07T09:16:16;20.80;63.50
54485;DHT22;45006;56.958;24.166;2023-05-07T09:18:43;20.80;63.70
54485;DHT22;45006;56.958;24.166;2023-05-07T09:21:15;20.80;63.90
54485;DHT22;45006;56.958;24.166;2023-05-07T09:23:42;20.80;64.10
54485;DHT22;45006;56.958;24.166;2023-05-07T09:26:09;20.80;64.30
54485;DHT22;45006;56.958;24.166;2023-05-07T09:28:41;20.80;64.40
54485;DHT22;45006;56.958;24.166;2023-05-07T09:31:10;20.80;64.40
54485;DHT22;45006;56.958;24.166;2023-05-07T09:33:38;20.80;64.50
54485;DHT22;45006;56.958;24.166;2023-05-07T09:36:07;20.80;64.70
54485;DHT22;45006;56.958;24.166;2023-05-07T09:38:35;20.80;64.90
54485;DHT22;45006;56.958;24.166;2023-05-07T09:41:10;20.80;64.80
54485;DHT22;45006;56.958;24.166;2023-05-07T09:43:38;20.70;64.50
54485;DHT22;45006;56.958;24.166;2023-05-07T09:46:12;20.70;63.50
54485;DHT22;45006;56.958;24.166;2023-05-07T09:48:41;20.70;63.50
54485;DHT22;45006;56.958;24.166;2023-05-07T09:51:22;20.70;64.10
54485;DHT22;45006;56.958;24.166;2023-05-07T09:53:52;20.70;64.20
54485;DHT22;45006;56.958;24.166;2023-05-07T09:56:20;20.70;64.70
54485;DHT22;45006;56.958;24.166;2023-05-07T09:58:48;20.70;64.70
54485;DHT22;45006;56.958;24.166;2023-05-07T10:01:18;20.70;64.90
54485;DHT22;45006;56.958;24.166;2023-05-07T10:03:49;20.70;65.20
54485;DHT22;45006;56.958;24.166;2023-05-07T10:06:20;20.70;65.30
54485;DHT22;45006;56.958;24.166;2023-05-07T10:08:48;20.70;65.60
54485;DHT22;45006;56.958;24.166;2023-05-07T10:16:17;20.80;95.30
54485;DHT22;45006;56.958;24.166;2023-05-07T10:18:45;20.70;66.30
54485;DHT22;45006;56.958;24.166;2023-05-07T10:21:21;20.70;66.30
54485;DHT22;45006;56.958;24.166;2023-05-07T10:23:51;20.70;66.30
54485;DHT22;45006;56.958;24.166;2023-05-07T10:26:22;20.70;66.50
54485;DHT22;45006;56.958;24.166;2023-05-07T10:28:54;20.70;66.60
54485;DHT22;45006;56.958;24.166;2023-05-07T10:31:50;20.70;66.80
54485;DHT22;45006;56.958;24.166;2023-05-07T10:34:25;20.70;66.80
54485;DHT22;45006;56.958;24.166;2023-05-07T10:36:53;20.70;66.80
54485;DHT22;45006;56.958;24.166;2023-05-07T10:39:22;20.70;66.90
54485;DHT22;45006;56.958;24.166;2023-05-07T10:41:49;20.70;67.00
54485;DHT22;45006;56.958;24.166;2023-05-07T10:44:29;20.70;67.10
54485;DHT22;45006;56.958;24.166;2023-05-07T10:47:13;20.70;67.10
54485;DHT22;45006;56.958;24.166;2023-05-07T10:54:45;20.70;67.30
54485;DHT22;45006;56.958;24.166;2023-05-07T10:57:37;20.70;67.40
54485;DHT22;45006;56.958;24.166;2023-05-07T11:03:05;20.60;67.50
54485;DHT22;45006;56.958;24.166;2023-05-07T11:05:34;20.60;67.50
54485;DHT22;45006;56.958;24.166;2023-05-07T11:08:04;20.60;67.60
54485;DHT22;45006;56.958;24.166;2023-05-07T11:10:51;20.60;67.70
54485;DHT22;45006;56.958;24.166;2023-05-07T11:13:41;20.60;67.80
54485;DHT22;45006;56.958;24.166;2023-05-07T11:16:23;20.60;67.90
54485;DHT22;45006;56.958;24.166;2023-05-07T11:18:52;20.60;67.90
54485;DHT22;45006;56.958;24.166;2023-05-07T11:24:00;20.60;68.10
54485;DHT22;45006;56.958;24.166;2023-05-07T11:26:29;20.60;68.20
54485;DHT22;45006;56.958;24.166;2023-05-07T11:28:57;20.60;68.40
54485;DHT22;45006;56.958;24.166;2023-05-07T11:31:26;20.60;68.40
54485;DHT22;45006;56.958;24.166;2023-05-07T11:33:57;20.60;68.20
54485;DHT22;45006;56.958;24.166;2023-05-07T11:36:25;20.60;68.10
54485;DHT22;45006;56.958;24.166;2023-05-07T11:39:05;20.60;68.70
54485;DHT22;45006;56.958;24.166;2023-05-07T11:41:36;20.60;68.00
54485;DHT22;45006;56.958;24.166;2023-05-07T11:44:05;20.60;68.00
54485;DHT22;45006;56.958;24.166;2023-05-07T11:46:32;20.60;68.60
54485;DHT22;45006;56.958;24.166;2023-05-07T11:49:00;20.60;68.00
54485;DHT22;45006;56.958;24.166;2023-05-07T11:51:27;20.60;68.00
54485;DHT22;45006;56.958;24.166;2023-05-07T11:53:55;20.60;68.00
54485;DHT22;45006;56.958;24.166;2023-05-07T11:56:23;20.60;67.90
54485;DHT22;45006;56.958;24.166;2023-05-07T11:58:50;20.60;68.00
54485;DHT22;45006;56.958;24.166;2023-05-07T12:01:18;20.60;67.90
54485;DHT22;45006;56.958;24.166;2023-05-07T12:03:47;20.60;67.90
54485;DHT22;45006;56.958;24.166;2023-05-07T12:06:15;20.60;68.00
54485;DHT22;45006;56.958;24.166;2023-05-07T12:08:45;20.60;68.00
54485;DHT22;45006;56.958;24.166;2023-05-07T12:11:21;20.60;67.90
54485;DHT22;45006;56.958;24.166;2023-05-07T12:13:48;20.60;68.00
54485;DHT22;45006;56.958;24.166;2023-05-07T12:16:16;20.60;67.90
54485;DHT22;45006;56.958;24.166;2023-05-07T12:18:43;20.60;68.00
54485;DHT22;45006;56.958;24.166;2023-05-07T12:21:11;20.60;68.00
54485;DHT22;45006;56.958;24.166;2023-05-07T12:23:40;20.60;68.00
54485;DHT22;45006;56.958;24.166;2023-05-07T12:26:08;20.60;68.00
54485;DHT22;45006;56.958;24.166;2023-05-07T12:28:39;20.60;68.00
54485;DHT22;45006;56.958;24.166;2023-05-07T12:31:07;20.60;68.00
54485;DHT22;45006;56.958;24.166;2023-05-07T12:33:34;20.60;68.00
54485;DHT22;45006;56.958;24.166;2023-05-07T12:36:05;20.60;68.00
54485;DHT22;45006;56.958;24.166;2023-05-07T12:38:38;20.60;68.00
54485;DHT22;45006;56.958;24.166;2023-05-07T12:41:06;20.60;68.00
54485;DHT22;45006;56.958;24.166;2023-05-07T12:43:36;20.60;68.10
54485;DHT22;45006;56.958;24.166;2023-05-07T12:46:05;20.60;68.10
54485;DHT22;45006;56.958;24.166;2023-05-07T12:48:36;20.60;68.00
54485;DHT22;45006;56.958;24.166;2023-05-07T12:51:04;20.60;68.10
54485;DHT22;45006;56.958;24.166;2023-05-07T12:53:31;20.60;68.10
54485;DHT22;45006;56.958;24.166;2023-05-07T12:55:59;20.60;68.10
54485;DHT22;45006;56.958;24.166;2023-05-07T12:58:28;20.60;68.10
54485;DHT22;45006;56.958;24.166;2023-05-07T13:00:56;20.60;68.20
54485;DHT22;45006;56.958;24.166;2023-05-07T13:03:36;20.60;68.20
54485;DHT22;45006;56.958;24.166;2023-05-07T13:06:06;20.60;68.20
54485;DHT22;45006;56.958;24.166;2023-05-07T13:08:38;20.60;68.20
54485;DHT22;45006;56.958;24.166;2023-05-07T13:11:08;20.60;68.20
54485;DHT22;45006;56.958;24.166;2023-05-07T13:13:36;20.60;68.20
54485;DHT22;45006;56.958;24.166;2023-05-07T13:16:07;20.60;68.30
54485;DHT22;45006;56.958;24.166;2023-05-07T13:18:36;20.60;68.30
54485;DHT22;45006;56.958;24.166;2023-05-07T13:21:06;20.60;68.30
54485;DHT22;45006;56.958;24.166;2023-05-07T13:23:33;20.60;68.40
54485;DHT22;45006;56.958;24.166;2023-05-07T13:26:02;20.60;68.40
54485;DHT22;45006;56.958;24.166;2023-05-07T13:28:53;20.60;68.40
54485;DHT22;45006;56.958;24.166;2023-05-07T13:31:20;20.60;68.40
54485;DHT22;45006;56.958;24.166;2023-05-07T13:33:47;20.60;68.40
54485;DHT22;45006;56.958;24.166;2023-05-07T13:36:14;20.60;68.50
54485;DHT22;45006;56.958;24.166;2023-05-07T13:38:43;20.60;68.40
54485;DHT22;45006;56.958;24.166;2023-05-07T13:41:12;20.60;68.50
54485;DHT22;45006;56.958;24.166;2023-05-07T13:43:40;20.60;68.50
54485;DHT22;45006;56.958;24.166;2023-05-07T13:46:07;20.60;68.50
54485;DHT22;45006;56.958;24.166;2023-05-07T13:48:38;20.60;68.50
54485;DHT22;45006;56.958;24.166;2023-05-07T13:51:05;20.60;68.60
54485;DHT22;45006;56.958;24.166;2023-05-07T13:53:32;20.60;68.60
54485;DHT22;45006;56.958;24.166;2023-05-07T13:55:59;20.60;68.60
54485;DHT22;45006;56.958;24.166;2023-05-07T13:58:26;20.60;68.60
54485;DHT22;45006;56.958;24.166;2023-05-07T14:00:53;20.60;68.60
54485;DHT22;45006;56.958;24.166;2023-05-07T14:03:24;20.60;68.60
54485;DHT22;45006;56.958;24.166;2023-05-07T14:05:51;20.60;68.60
54485;DHT22;45006;56.958;24.166;2023-05-07T14:08:18;20.60;68.60
54485;DHT22;45006;56.958;24.166;2023-05-07T14:10:46;20.60;68.60
54485;DHT22;45006;56.958;24.166;2023-05-07T14:13:13;20.60;68.60
54485;DHT22;45006;56.958;24.166;2023-05-07T14:15:43;20.60;68.70
54485;DHT22;45006;56.958;24.166;2023-05-07T14:18:14;20.60;68.60
54485;DHT22;45006;56.958;24.166;2023-05-07T14:20:41;20.60;68.50
54485;DHT22;45006;56.958;24.166;2023-05-07T14:23:10;20.60;68.50
54485;DHT22;45006;56.958;24.166;2023-05-07T14:25:37;20.60;68.50
54485;DHT22;45006;56.958;24.166;2023-05-07T14:28:07;20.60;68.50
54485;DHT22;45006;56.958;24.166;2023-05-07T14:30:34;20.50;68.40
54485;DHT22;45006;56.958;24.166;2023-05-07T14:33:05;20.50;68.30
54485;DHT22;45006;56.958;24.166;2023-05-07T14:35:36;20.50;68.20
54485;DHT22;45006;56.958;24.166;2023-05-07T14:38:11;20.50;68.10
54485;DHT22;45006;56.958;24.166;2023-05-07T14:40:42;20.50;68.10
54485;DHT22;45006;56.958;24.166;2023-05-07T14:43:10;20.50;68.00
54485;DHT22;45006;56.958;24.166;2023-05-07T14:45:37;20.50;68.10
54485;DHT22;45006;56.958;24.166;2023-05-07T14:48:05;20.50;68.00
54485;DHT22;45006;56.958;24.166;2023-05-07T14:50:32;20.50;68.00
54485;DHT22;45006;56.958;24.166;2023-05-07T14:52:59;20.50;68.00
54485;DHT22;45006;56.958;24.166;2023-05-07T14:55:27;20.50;68.00
54485;DHT22;45006;56.958;24.166;2023-05-07T14:57:55;20.50;68.00
54485;DHT22;45006;56.958;24.166;2023-05-07T15:00:25;20.50;68.00
54485;DHT22;45006;56.958;24.166;2023-05-07T15:02:54;20.50;68.00
54485;DHT22;45006;56.958;24.166;2023-05-07T15:05:23;20.50;68.10
54485;DHT22;45006;56.958;24.166;2023-05-07T15:07:51;20.50;68.10
54485;DHT22;45006;56.958;24.166;2023-05-07T15:10:23;20.50;68.20
54485;DHT22;45006;56.958;24.166;2023-05-07T15:12:50;20.50;68.20
54485;DHT22;45006;56.958;24.166;2023-05-07T15:15:19;20.50;68.30
54485;DHT22;45006;56.958;24.166;2023-05-07T15:17:46;20.40;68.30
54485;DHT22;45006;56.958;24.166;2023-05-07T15:20:14;20.50;68.40
54485;DHT22;45006;56.958;24.166;2023-05-07T15:22:41;20.50;68.40
54485;DHT22;45006;56.958;24.166;2023-05-07T15:25:09;20.50;68.60
54485;DHT22;45006;56.958;24.166;2023-05-07T15:27:36;20.40;68.60
54485;DHT22;45006;56.958;24.166;2023-05-07T15:30:04;20.40;68.50
54485;DHT22;45006;56.958;24.166;2023-05-07T15:32:34;20.40;68.80
54485;DHT22;45006;56.958;24.166;2023-05-07T15:35:01;20.40;68.60
54485;DHT22;45006;56.958;24.166;2023-05-07T15:37:34;20.40;68.70